sensor_id;sensor_type;location;lat;lon;timestamp;P1;durP1;ratioP1;P2;durP2;ratioP2
18695;SDS011;22617;43.690;27.956;2023-03-23T00:02:15;29.83;;;13.27;;
18695;SDS011;22617;43.690;27.956;2023-03-23T00:07:18;31.87;;;14.50;;
18695;SDS011;22617;43.690;27.956;2023-03-23T00:12:24;36.47;;;15.83;;
18695;SDS011;22617;43.690;27.956;2023-03-23T00:17:34;35.87;;;16.40;;
18695;SDS011;22617;43.690;27.956;2023-03-23T00:22:37;37.50;;;16.87;;
18695;SDS011;22617;43.690;27.956;2023-03-23T00:27:43;35.97;;;15.30;;
18695;SDS011;22617;43.690;27.956;2023-03-23T00:32:46;33.57;;;15.23;;
18695;SDS011;22617;43.690;27.956;2023-03-23T00:37:49;35.40;;;15.13;;
18695;SDS011;22617;43.690;27.956;2023-03-23T00:42:53;35.40;;;16.73;;
18695;SDS011;22617;43.690;27.956;2023-03-23T00:47:56;32.47;;;14.57;;
18695;SDS011;22617;43.690;27.956;2023-03-23T00:53:05;38.53;;;16.57;;
18695;SDS011;22617;43.690;27.956;2023-03-23T00:58:10;41.57;;;17.70;;
18695;SDS011;22617;43.690;27.956;2023-03-23T01:03:13;37.13;;;16.07;;
18695;SDS011;22617;43.690;27.956;2023-03-23T01:08:18;39.30;;;15.60;;
18695;SDS011;22617;43.690;27.956;2023-03-23T01:13:23;39.93;;;16.73;;
18695;SDS011;22617;43.690;27.956;2023-03-23T01:18:26;37.03;;;15.70;;
18695;SDS011;22617;43.690;27.956;2023-03-23T01:23:29;34.43;;;15.50;;
18695;SDS011;22617;43.690;27.956;2023-03-23T01:33:38;40.00;;;16.27;;
18695;SDS011;22617;43.690;27.956;2023-03-23T01:38:42;36.43;;;15.87;;
18695;SDS011;22617;43.690;27.956;2023-03-23T01:43:56;40.53;;;16.73;;
18695;SDS011;22617;43.690;27.956;2023-03-23T01:49:05;39.20;;;16.30;;
18695;SDS011;22617;43.690;27.956;2023-03-23T01:54:15;37.57;;;15.03;;
18695;SDS011;22617;43.690;27.956;2023-03-23T01:59:24;39.20;;;16.13;;
18695;SDS011;22617;43.690;27.956;2023-03-23T02:04:47;42.40;;;17.07;;
18695;SDS011;22617;43.690;27.956;2023-03-23T02:09:50;38.13;;;15.40;;
18695;SDS011;22617;43.690;27.956;2023-03-23T02:14:55;44.03;;;17.57;;
18695;SDS011;22617;43.690;27.956;2023-03-23T02:20:06;39.63;;;16.13;;
18695;SDS011;22617;43.690;27.956;2023-03-23T02:25:30;37.40;;;14.80;;
18695;SDS011;22617;43.690;27.956;2023-03-23T02:30:50;35.73;;;15.13;;
18695;SDS011;22617;43.690;27.956;2023-03-23T02:36:10;35.90;;;14.73;;
18695;SDS011;22617;43.690;27.956;2023-03-23T02:41:20;41.70;;;16.73;;
18695;SDS011;22617;43.690;27.956;2023-03-23T02:46:25;37.97;;;15.27;;
18695;SDS011;22617;43.690;27.956;2023-03-23T02:51:30;36.37;;;15.00;;
18695;SDS011;22617;43.690;27.956;2023-03-23T02:56:36;36.63;;;15.97;;
18695;SDS011;22617;43.690;27.956;2023-03-23T03:02:00;41.97;;;15.93;;
18695;SDS011;22617;43.690;27.956;2023-03-23T03:07:24;45.87;;;17.63;;
18695;SDS011;22617;43.690;27.956;2023-03-23T03:12:41;42.27;;;16.37;;
18695;SDS011;22617;43.690;27.956;2023-03-23T03:17:49;36.87;;;14.97;;
18695;SDS011;22617;43.690;27.956;2023-03-23T03:23:01;43.80;;;16.67;;
18695;SDS011;22617;43.690;27.956;2023-03-23T03:28:09;41.83;;;16.20;;
18695;SDS011;22617;43.690;27.956;2023-03-23T03:33:17;46.17;;;18.13;;
18695;SDS011;22617;43.690;27.956;2023-03-23T03:38:24;44.37;;;16.40;;
18695;SDS011;22617;43.690;27.956;2023-03-23T03:43:28;48.63;;;17.73;;
18695;SDS011;22617;43.690;27.956;2023-03-23T03:48:31;50.23;;;18.03;;
18695;SDS011;22617;43.690;27.956;2023-03-23T03:53:36;48.10;;;17.77;;
18695;SDS011;22617;43.690;27.956;2023-03-23T03:58:39;51.13;;;19.70;;
18695;SDS011;22617;43.690;27.956;2023-03-23T04:03:54;48.30;;;18.27;;
18695;SDS011;22617;43.690;27.956;2023-03-23T04:09:09;52.90;;;17.87;;
18695;SDS011;22617;43.690;27.956;2023-03-23T04:14:12;44.50;;;17.13;;
18695;SDS011;22617;43.690;27.956;2023-03-23T04:19:18;46.80;;;17.33;;
18695;SDS011;22617;43.690;27.956;2023-03-23T04:24:24;52.57;;;18.67;;
18695;SDS011;22617;43.690;27.956;2023-03-23T04:29:29;54.20;;;19.27;;
18695;SDS011;22617;43.690;27.956;2023-03-23T04:35:10;57.83;;;19.03;;
18695;SDS011;22617;43.690;27.956;2023-03-23T04:40:26;60.70;;;19.30;;
18695;SDS011;22617;43.690;27.956;2023-03-23T04:45:38;50.03;;;16.97;;
18695;SDS011;22617;43.690;27.956;2023-03-23T04:50:43;60.43;;;19.50;;
18695;SDS011;22617;43.690;27.956;2023-03-23T04:55:57;56.53;;;18.77;;
18695;SDS011;22617;43.690;27.956;2023-03-23T05:01:05;54.20;;;18.43;;
18695;SDS011;22617;43.690;27.956;2023-03-23T05:06:17;56.23;;;18.93;;
18695;SDS011;22617;43.690;27.956;2023-03-23T05:11:22;54.63;;;18.30;;
18695;SDS011;22617;43.690;27.956;2023-03-23T05:16:24;55.07;;;17.30;;
18695;SDS011;22617;43.690;27.956;2023-03-23T05:21:30;51.37;;;18.77;;
18695;SDS011;22617;43.690;27.956;2023-03-23T05:26:34;50.20;;;16.87;;
18695;SDS011;22617;43.690;27.956;2023-03-23T05:31:47;52.17;;;19.23;;
18695;SDS011;22617;43.690;27.956;2023-03-23T05:36:50;52.17;;;17.60;;
18695;SDS011;22617;43.690;27.956;2023-03-23T05:42:21;50.53;;;17.20;;
18695;SDS011;22617;43.690;27.956;2023-03-23T05:47:40;49.97;;;17.20;;
18695;SDS011;22617;43.690;27.956;2023-03-23T05:52:48;54.00;;;18.57;;
18695;SDS011;22617;43.690;27.956;2023-03-23T05:57:55;55.50;;;19.70;;
18695;SDS011;22617;43.690;27.956;2023-03-23T06:03:03;56.87;;;18.57;;
18695;SDS011;22617;43.690;27.956;2023-03-23T06:08:17;59.00;;;19.10;;
18695;SDS011;22617;43.690;27.956;2023-03-23T06:13:22;55.80;;;18.83;;
18695;SDS011;22617;43.690;27.956;2023-03-23T06:18:28;58.43;;;18.47;;
18695;SDS011;22617;43.690;27.956;2023-03-23T06:23:53;59.43;;;20.37;;
18695;SDS011;22617;43.690;27.956;2023-03-23T06:29:00;56.37;;;20.33;;
18695;SDS011;22617;43.690;27.956;2023-03-23T06:34:06;55.23;;;20.13;;
18695;SDS011;22617;43.690;27.956;2023-03-23T06:39:29;45.47;;;17.97;;
18695;SDS011;22617;43.690;27.956;2023-03-23T06:44:51;54.30;;;19.33;;
18695;SDS011;22617;43.690;27.956;2023-03-23T06:49:58;53.30;;;19.53;;
18695;SDS011;22617;43.690;27.956;2023-03-23T06:55:05;52.40;;;19.37;;
18695;SDS011;22617;43.690;27.956;2023-03-23T07:00:10;56.20;;;21.33;;
18695;SDS011;22617;43.690;27.956;2023-03-23T07:05:16;49.40;;;18.83;;
18695;SDS011;22617;43.690;27.956;2023-03-23T07:10:22;54.37;;;20.10;;
18695;SDS011;22617;43.690;27.956;2023-03-23T07:15:27;51.07;;;19.37;;
18695;SDS011;22617;43.690;27.956;2023-03-23T07:20:31;50.77;;;20.27;;
18695;SDS011;22617;43.690;27.956;2023-03-23T07:25:34;46.30;;;18.77;;
18695;SDS011;22617;43.690;27.956;2023-03-23T07:30:39;52.07;;;21.27;;
18695;SDS011;22617;43.690;27.956;2023-03-23T07:35:44;50.90;;;21.93;;
18695;SDS011;22617;43.690;27.956;2023-03-23T07:40:50;50.73;;;20.50;;
18695;SDS011;22617;43.690;27.956;2023-03-23T07:45:55;50.13;;;20.70;;
18695;SDS011;22617;43.690;27.956;2023-03-23T07:51:03;50.17;;;20.20;;
18695;SDS011;22617;43.690;27.956;2023-03-23T07:56:07;53.97;;;22.43;;
18695;SDS011;22617;43.690;27.956;2023-03-23T08:01:28;52.93;;;21.47;;
18695;SDS011;22617;43.690;27.956;2023-03-23T08:06:49;59.70;;;24.00;;
18695;SDS011;22617;43.690;27.956;2023-03-23T08:12:08;66.17;;;25.67;;
18695;SDS011;22617;43.690;27.956;2023-03-23T08:17:34;58.43;;;23.00;;
18695;SDS011;22617;43.690;27.956;2023-03-23T08:22:51;51.53;;;22.03;;
18695;SDS011;22617;43.690;27.956;2023-03-23T08:28:34;52.80;;;21.00;;
18695;SDS011;22617;43.690;27.956;2023-03-23T08:34:07;53.33;;;21.20;;
18695;SDS011;22617;43.690;27.956;2023-03-23T08:39:12;50.33;;;21.30;;
18695;SDS011;22617;43.690;27.956;2023-03-23T08:44:38;49.87;;;21.53;;
18695;SDS011;22617;43.690;27.956;2023-03-23T08:50:14;51.00;;;21.57;;
18695;SDS011;22617;43.690;27.956;2023-03-23T08:55:31;55.63;;;21.40;;
18695;SDS011;22617;43.690;27.956;2023-03-23T09:01:09;46.03;;;19.43;;
18695;SDS011;22617;43.690;27.956;2023-03-23T09:06:36;41.07;;;19.47;;
18695;SDS011;22617;43.690;27.956;2023-03-23T09:11:38;43.77;;;18.63;;
18695;SDS011;22617;43.690;27.956;2023-03-23T09:16:41;42.03;;;19.30;;
18695;SDS011;22617;43.690;27.956;2023-03-23T09:21:45;37.93;;;18.73;;
18695;SDS011;22617;43.690;27.956;2023-03-23T09:26:47;39.93;;;18.13;;
18695;SDS011;22617;43.690;27.956;2023-03-23T09:31:49;39.50;;;20.20;;
18695;SDS011;22617;43.690;27.956;2023-03-23T09:36:53;41.67;;;19.37;;
18695;SDS011;22617;43.690;27.956;2023-03-23T09:42:02;45.67;;;21.57;;
18695;SDS011;22617;43.690;27.956;2023-03-23T09:47:23;42.87;;;21.10;;
18695;SDS011;22617;43.690;27.956;2023-03-23T09:52:37;38.53;;;19.77;;
18695;SDS011;22617;43.690;27.956;2023-03-23T09:57:45;39.40;;;19.33;;
18695;SDS011;22617;43.690;27.956;2023-03-23T10:02:54;40.30;;;18.97;;
18695;SDS011;22617;43.690;27.956;2023-03-23T10:08:05;37.67;;;19.63;;
18695;SDS011;22617;43.690;27.956;2023-03-23T10:13:17;38.80;;;20.03;;
18695;SDS011;22617;43.690;27.956;2023-03-23T10:18:29;42.60;;;20.80;;
18695;SDS011;22617;43.690;27.956;2023-03-23T10:29:04;36.00;;;19.63;;
18695;SDS011;22617;43.690;27.956;2023-03-23T10:34:13;39.47;;;18.60;;
18695;SDS011;22617;43.690;27.956;2023-03-23T10:39:21;37.13;;;18.70;;
18695;SDS011;22617;43.690;27.956;2023-03-23T10:44:25;31.60;;;16.80;;
18695;SDS011;22617;43.690;27.956;2023-03-23T10:49:28;35.80;;;19.03;;
18695;SDS011;22617;43.690;27.956;2023-03-23T10:54:46;33.10;;;18.03;;
18695;SDS011;22617;43.690;27.956;2023-03-23T10:59:57;36.30;;;17.63;;
18695;SDS011;22617;43.690;27.956;2023-03-23T11:05:06;35.53;;;18.00;;
18695;SDS011;22617;43.690;27.956;2023-03-23T11:10:21;35.27;;;18.67;;
18695;SDS011;22617;43.690;27.956;2023-03-23T11:15:28;34.50;;;17.87;;
18695;SDS011;22617;43.690;27.956;2023-03-23T11:20:33;37.73;;;19.77;;
18695;SDS011;22617;43.690;27.956;2023-03-23T11:31:09;33.67;;;18.77;;
18695;SDS011;22617;43.690;27.956;2023-03-23T11:36:12;34.17;;;18.57;;
18695;SDS011;22617;43.690;27.956;2023-03-23T11:41:18;41.77;;;20.83;;
18695;SDS011;22617;43.690;27.956;2023-03-23T11:46:28;34.73;;;18.00;;
18695;SDS011;22617;43.690;27.956;2023-03-23T11:51:36;31.20;;;17.23;;
18695;SDS011;22617;43.690;27.956;2023-03-23T11:56:45;35.70;;;18.33;;
18695;SDS011;22617;43.690;27.956;2023-03-23T12:01:49;28.63;;;16.23;;
18695;SDS011;22617;43.690;27.956;2023-03-23T12:06:58;30.47;;;17.50;;
18695;SDS011;22617;43.690;27.956;2023-03-23T12:12:15;28.03;;;15.90;;
18695;SDS011;22617;43.690;27.956;2023-03-23T12:17:31;32.83;;;16.97;;
18695;SDS011;22617;43.690;27.956;2023-03-23T12:22:45;32.53;;;17.67;;
18695;SDS011;22617;43.690;27.956;2023-03-23T12:27:58;32.63;;;18.40;;
18695;SDS011;22617;43.690;27.956;2023-03-23T12:33:13;36.33;;;18.47;;
18695;SDS011;22617;43.690;27.956;2023-03-23T12:38:41;33.77;;;18.27;;
18695;SDS011;22617;43.690;27.956;2023-03-23T12:44:03;35.70;;;18.10;;
18695;SDS011;22617;43.690;27.956;2023-03-23T12:49:11;34.90;;;18.77;;
18695;SDS011;22617;43.690;27.956;2023-03-23T12:54:21;35.67;;;19.47;;
18695;SDS011;22617;43.690;27.956;2023-03-23T12:59:32;31.77;;;17.00;;
18695;SDS011;22617;43.690;27.956;2023-03-23T13:04:41;26.73;;;14.87;;
18695;SDS011;22617;43.690;27.956;2023-03-23T13:09:48;25.27;;;14.67;;
18695;SDS011;22617;43.690;27.956;2023-03-23T13:15:00;27.60;;;15.00;;
18695;SDS011;22617;43.690;27.956;2023-03-23T13:20:15;23.83;;;13.90;;
18695;SDS011;22617;43.690;27.956;2023-03-23T13:25:39;25.77;;;15.77;;
18695;SDS011;22617;43.690;27.956;2023-03-23T13:31:00;26.97;;;14.90;;
18695;SDS011;22617;43.690;27.956;2023-03-23T13:36:07;29.17;;;13.80;;
18695;SDS011;22617;43.690;27.956;2023-03-23T13:41:12;29.33;;;14.60;;
18695;SDS011;22617;43.690;27.956;2023-03-23T13:46:25;24.10;;;13.33;;
18695;SDS011;22617;43.690;27.956;2023-03-23T13:51:35;26.80;;;13.87;;
18695;SDS011;22617;43.690;27.956;2023-03-23T13:56:41;24.23;;;13.23;;
18695;SDS011;22617;43.690;27.956;2023-03-23T14:01:46;22.60;;;14.17;;
18695;SDS011;22617;43.690;27.956;2023-03-23T14:06:49;23.53;;;13.37;;
18695;SDS011;22617;43.690;27.956;2023-03-23T14:11:58;22.00;;;13.50;;
18695;SDS011;22617;43.690;27.956;2023-03-23T14:17:12;21.30;;;13.17;;
18695;SDS011;22617;43.690;27.956;2023-03-23T14:22:18;22.17;;;13.17;;
18695;SDS011;22617;43.690;27.956;2023-03-23T14:27:23;24.73;;;14.30;;
18695;SDS011;22617;43.690;27.956;2023-03-23T14:32:28;26.10;;;14.67;;
18695;SDS011;22617;43.690;27.956;2023-03-23T14:37:33;23.53;;;13.00;;
18695;SDS011;22617;43.690;27.956;2023-03-23T14:42:37;20.57;;;12.83;;
18695;SDS011;22617;43.690;27.956;2023-03-23T14:47:42;26.77;;;15.07;;
18695;SDS011;22617;43.690;27.956;2023-03-23T14:52:47;24.37;;;14.23;;
18695;SDS011;22617;43.690;27.956;2023-03-23T14:57:50;25.10;;;14.83;;
18695;SDS011;22617;43.690;27.956;2023-03-23T15:02:55;24.90;;;14.43;;
18695;SDS011;22617;43.690;27.956;2023-03-23T15:08:00;23.20;;;13.87;;
18695;SDS011;22617;43.690;27.956;2023-03-23T15:13:08;25.07;;;14.87;;
18695;SDS011;22617;43.690;27.956;2023-03-23T15:18:25;24.90;;;14.07;;
18695;SDS011;22617;43.690;27.956;2023-03-23T15:23:32;22.20;;;13.77;;
18695;SDS011;22617;43.690;27.956;2023-03-23T15:28:39;26.07;;;15.10;;
18695;SDS011;22617;43.690;27.956;2023-03-23T15:33:43;26.73;;;14.87;;
18695;SDS011;22617;43.690;27.956;2023-03-23T15:38:46;28.00;;;14.53;;
18695;SDS011;22617;43.690;27.956;2023-03-23T15:43:50;25.97;;;15.17;;
18695;SDS011;22617;43.690;27.956;2023-03-23T15:49:10;26.20;;;14.53;;
18695;SDS011;22617;43.690;27.956;2023-03-23T15:54:15;25.43;;;14.70;;
18695;SDS011;22617;43.690;27.956;2023-03-23T15:59:17;24.70;;;13.90;;
18695;SDS011;22617;43.690;27.956;2023-03-23T16:04:22;23.00;;;13.93;;
18695;SDS011;22617;43.690;27.956;2023-03-23T16:09:27;24.00;;;14.13;;
18695;SDS011;22617;43.690;27.956;2023-03-23T16:14:31;26.80;;;14.70;;
18695;SDS011;22617;43.690;27.956;2023-03-23T16:19:35;26.97;;;15.37;;
18695;SDS011;22617;43.690;27.956;2023-03-23T16:24:39;23.00;;;13.30;;
18695;SDS011;22617;43.690;27.956;2023-03-23T16:29:42;23.37;;;13.37;;
18695;SDS011;22617;43.690;27.956;2023-03-23T16:35:06;24.47;;;14.53;;
18695;SDS011;22617;43.690;27.956;2023-03-23T16:40:10;26.00;;;14.70;;
18695;SDS011;22617;43.690;27.956;2023-03-23T16:45:15;26.37;;;15.43;;
18695;SDS011;22617;43.690;27.956;2023-03-23T16:50:20;29.67;;;16.30;;
18695;SDS011;22617;43.690;27.956;2023-03-23T16:55:24;22.53;;;12.93;;
18695;SDS011;22617;43.690;27.956;2023-03-23T17:00:28;27.63;;;16.03;;
18695;SDS011;22617;43.690;27.956;2023-03-23T17:05:34;32.70;;;17.83;;
18695;SDS011;22617;43.690;27.956;2023-03-23T17:10:39;33.30;;;18.80;;
18695;SDS011;22617;43.690;27.956;2023-03-23T17:15:45;46.40;;;21.30;;
18695;SDS011;22617;43.690;27.956;2023-03-23T17:20:52;39.43;;;20.60;;
18695;SDS011;22617;43.690;27.956;2023-03-23T17:25:56;41.53;;;20.87;;
18695;SDS011;22617;43.690;27.956;2023-03-23T17:30:59;41.40;;;17.83;;
18695;SDS011;22617;43.690;27.956;2023-03-23T17:36:05;36.83;;;18.47;;
18695;SDS011;22617;43.690;27.956;2023-03-23T17:41:08;38.30;;;18.23;;
18695;SDS011;22617;43.690;27.956;2023-03-23T17:46:12;40.67;;;20.17;;
18695;SDS011;22617;43.690;27.956;2023-03-23T17:51:17;41.67;;;21.17;;
18695;SDS011;22617;43.690;27.956;2023-03-23T17:56:21;37.70;;;18.90;;
18695;SDS011;22617;43.690;27.956;2023-03-23T18:01:25;32.57;;;17.07;;
18695;SDS011;22617;43.690;27.956;2023-03-23T18:06:30;31.87;;;17.23;;
18695;SDS011;22617;43.690;27.956;2023-03-23T18:11:35;30.63;;;16.60;;
18695;SDS011;22617;43.690;27.956;2023-03-23T18:16:38;33.23;;;16.70;;
18695;SDS011;22617;43.690;27.956;2023-03-23T18:21:43;33.17;;;16.03;;
18695;SDS011;22617;43.690;27.956;2023-03-23T18:26:46;31.30;;;16.47;;
18695;SDS011;22617;43.690;27.956;2023-03-23T18:31:50;34.33;;;16.80;;
18695;SDS011;22617;43.690;27.956;2023-03-23T18:36:56;36.53;;;18.27;;
18695;SDS011;22617;43.690;27.956;2023-03-23T18:41:59;34.70;;;17.90;;
18695;SDS011;22617;43.690;27.956;2023-03-23T18:47:03;40.77;;;18.47;;
18695;SDS011;22617;43.690;27.956;2023-03-23T18:52:08;36.97;;;18.60;;
18695;SDS011;22617;43.690;27.956;2023-03-23T18:57:12;41.07;;;20.27;;
18695;SDS011;22617;43.690;27.956;2023-03-23T19:02:19;43.40;;;20.10;;
18695;SDS011;22617;43.690;27.956;2023-03-23T19:07:24;44.93;;;21.00;;
18695;SDS011;22617;43.690;27.956;2023-03-23T19:12:30;44.37;;;22.13;;
18695;SDS011;22617;43.690;27.956;2023-03-23T19:17:35;38.73;;;20.50;;
18695;SDS011;22617;43.690;27.956;2023-03-23T19:22:40;42.47;;;21.07;;
18695;SDS011;22617;43.690;27.956;2023-03-23T19:27:44;50.33;;;24.10;;
18695;SDS011;22617;43.690;27.956;2023-03-23T19:33:08;51.43;;;24.77;;
18695;SDS011;22617;43.690;27.956;2023-03-23T19:38:13;54.73;;;27.53;;
18695;SDS011;22617;43.690;27.956;2023-03-23T19:43:17;63.10;;;30.67;;
18695;SDS011;22617;43.690;27.956;2023-03-23T19:48:22;71.43;;;33.10;;
18695;SDS011;22617;43.690;27.956;2023-03-23T19:53:27;66.43;;;32.27;;
18695;SDS011;22617;43.690;27.956;2023-03-23T19:58:32;69.67;;;32.50;;
18695;SDS011;22617;43.690;27.956;2023-03-23T20:03:36;72.10;;;32.83;;
18695;SDS011;22617;43.690;27.956;2023-03-23T20:08:42;59.07;;;28.80;;
18695;SDS011;22617;43.690;27.956;2023-03-23T20:13:48;67.73;;;31.60;;
18695;SDS011;22617;43.690;27.956;2023-03-23T20:18:52;71.03;;;32.17;;
18695;SDS011;22617;43.690;27.956;2023-03-23T20:24:02;65.83;;;31.13;;
18695;SDS011;22617;43.690;27.956;2023-03-23T20:29:06;66.20;;;31.40;;
18695;SDS011;22617;43.690;27.956;2023-03-23T20:34:13;68.40;;;32.10;;
18695;SDS011;22617;43.690;27.956;2023-03-23T20:39:31;66.93;;;30.43;;
18695;SDS011;22617;43.690;27.956;2023-03-23T20:44:35;60.70;;;29.13;;
18695;SDS011;22617;43.690;27.956;2023-03-23T20:49:40;60.20;;;28.33;;
18695;SDS011;22617;43.690;27.956;2023-03-23T20:54:55;59.90;;;28.17;;
18695;SDS011;22617;43.690;27.956;2023-03-23T20:59:58;60.37;;;27.20;;
18695;SDS011;22617;43.690;27.956;2023-03-23T21:05:04;53.60;;;26.93;;
18695;SDS011;22617;43.690;27.956;2023-03-23T21:10:10;57.23;;;26.80;;
18695;SDS011;22617;43.690;27.956;2023-03-23T21:15:14;50.03;;;25.23;;
18695;SDS011;22617;43.690;27.956;2023-03-23T21:20:17;50.70;;;24.90;;
18695;SDS011;22617;43.690;27.956;2023-03-23T21:25:22;53.33;;;26.20;;
18695;SDS011;22617;43.690;27.956;2023-03-23T21:30:36;60.77;;;28.43;;
18695;SDS011;22617;43.690;27.956;2023-03-23T21:35:42;59.27;;;26.43;;
18695;SDS011;22617;43.690;27.956;2023-03-23T21:40:47;57.27;;;27.40;;
18695;SDS011;22617;43.690;27.956;2023-03-23T21:45:51;55.97;;;25.80;;
18695;SDS011;22617;43.690;27.956;2023-03-23T21:50:56;51.53;;;24.23;;
18695;SDS011;22617;43.690;27.956;2023-03-23T21:56:09;50.13;;;24.80;;
18695;SDS011;22617;43.690;27.956;2023-03-23T22:01:13;50.20;;;24.23;;
18695;SDS011;22617;43.690;27.956;2023-03-23T22:06:19;46.63;;;22.80;;
18695;SDS011;22617;43.690;27.956;2023-03-23T22:11:28;51.43;;;23.93;;
18695;SDS011;22617;43.690;27.956;2023-03-23T22:16:33;46.27;;;23.37;;
18695;SDS011;22617;43.690;27.956;2023-03-23T22:21:37;47.33;;;23.10;;
18695;SDS011;22617;43.690;27.956;2023-03-23T22:26:42;44.67;;;22.03;;
18695;SDS011;22617;43.690;27.956;2023-03-23T22:31:45;44.07;;;22.20;;
18695;SDS011;22617;43.690;27.956;2023-03-23T22:36:49;50.10;;;23.77;;
18695;SDS011;22617;43.690;27.956;2023-03-23T22:41:54;54.43;;;24.57;;
18695;SDS011;22617;43.690;27.956;2023-03-23T22:46:58;52.27;;;24.43;;
18695;SDS011;22617;43.690;27.956;2023-03-23T22:52:02;51.23;;;24.83;;
18695;SDS011;22617;43.690;27.956;2023-03-23T22:57:07;58.73;;;26.63;;
18695;SDS011;22617;43.690;27.956;2023-03-23T23:02:11;53.57;;;25.13;;
18695;SDS011;22617;43.690;27.956;2023-03-23T23:07:14;54.43;;;25.47;;
18695;SDS011;22617;43.690;27.956;2023-03-23T23:12:19;59.60;;;27.80;;
18695;SDS011;22617;43.690;27.956;2023-03-23T23:17:23;59.50;;;28.50;;
18695;SDS011;22617;43.690;27.956;2023-03-23T23:22:27;50.40;;;24.73;;
18695;SDS011;22617;43.690;27.956;2023-03-23T23:27:32;62.20;;;28.50;;
18695;SDS011;22617;43.690;27.956;2023-03-23T23:32:35;55.27;;;26.30;;
18695;SDS011;22617;43.690;27.956;2023-03-23T23:37:39;53.43;;;25.47;;
18695;SDS011;22617;43.690;27.956;2023-03-23T23:42:44;53.90;;;25.27;;
18695;SDS011;22617;43.690;27.956;2023-03-23T23:47:49;54.37;;;26.53;;
18695;SDS011;22617;43.690;27.956;2023-03-23T23:52:52;47.83;;;23.97;;
18695;SDS011;22617;43.690;27.956;2023-03-23T23:57:58;46.87;;;23.03;;
